Time;durP1;ratioP1;P1;durP2;ratioP2;P2;SDS_P1;SDS_P2;PMS_P1;PMS_P2;Temp;Humidity;BMP_temperature;BMP_pressure;BME280_temperature;BME280_humidity;BME280_pressure;Samples;Min_cycle;Max_cycle;Signal;HPM_P1;HPM_P2
2021/11/01 00:00:36;;;;;;;5.43;3.70;;;15.20;79.70;;;;;;4967740;28;20435;-74
2021/11/01 00:03:02;;;;;;;4.17;3.23;;;15.10;79.70;;;;;;4965683;29;20503;-75
2021/11/01 00:05:28;;;;;;;3.83;3.40;;;15.00;80.20;;;;;;4951402;29;20977;-74
2021/11/01 00:07:53;;;;;;;4.73;3.00;;;15.00;80.30;;;;;;4952463;29;20494;-74
2021/11/01 00:10:20;;;;;;;4.17;2.90;;;15.00;80.50;;;;;;4952343;29;20228;-75
2021/11/01 00:12:47;;;;;;;4.70;3.17;;;15.20;80.00;;;;;;4952132;29;20427;-75
2021/11/01 00:15:14;;;;;;;5.60;3.10;;;15.20;79.70;;;;;;4950611;28;21045;-73
2021/11/01 00:17:40;;;;;;;4.20;3.00;;;15.30;79.60;;;;;;4952173;28;20927;-72
2021/11/01 00:20:08;;;;;;;4.53;2.97;;;15.50;79.00;;;;;;4947579;29;20887;-74
2021/11/01 00:22:34;;;;;;;3.97;2.80;;;15.50;78.60;;;;;;4953125;28;20527;-73
2021/11/01 00:25:01;;;;;;;6.10;3.53;;;15.50;78.60;;;;;;4944944;28;20558;-73
2021/11/01 00:27:27;;;;;;;6.40;4.30;;;15.60;78.60;;;;;;4954172;29;20503;-72
2021/11/01 00:29:52;;;;;;;7.53;3.70;;;15.50;78.90;;;;;;4949732;29;20436;-73
2021/11/01 00:32:18;;;;;;;7.93;4.00;;;15.40;79.60;;;;;;4951589;29;20702;-73
2021/11/01 00:34:44;;;;;;;5.40;3.10;;;15.20;80.30;;;;;;4953800;28;20207;-73
2021/11/01 00:37:10;;;;;;;3.57;3.00;;;15.10;80.90;;;;;;4954841;28;20218;-72
2021/11/01 00:39:37;;;;;;;4.40;2.70;;;15.10;81.70;;;;;;4948238;29;20502;-72
2021/11/01 00:42:04;;;;;;;4.87;2.70;;;15.20;82.50;;;;;;4954933;29;20419;-74
2021/11/01 00:44:30;;;;;;;3.13;2.63;;;15.20;83.40;;;;;;4953341;28;20453;-72
2021/11/01 00:46:58;;;;;;;3.23;2.40;;;15.40;83.80;;;;;;4954203;29;20518;-74
2021/11/01 00:49:26;;;;;;;4.57;2.23;;;15.60;84.00;;;;;;4947522;29;20435;-72
2021/11/01 00:51:54;;;;;;;3.63;2.40;;;15.80;83.70;;;;;;4953637;29;20451;-75
2021/11/01 00:54:20;;;;;;;3.53;2.27;;;15.80;83.40;;;;;;4954037;28;20858;-72
2021/11/01 00:56:46;;;;;;;9.00;2.83;;;15.90;83.40;;;;;;4954757;28;20492;-74
2021/11/01 00:59:12;;;;;;;3.37;2.00;;;16.10;83.30;;;;;;4955443;28;20459;-73
2021/11/01 01:01:39;;;;;;;2.77;1.70;;;16.10;83.10;;;;;;4949230;28;20177;-73
2021/11/01 01:04:05;;;;;;;2.30;1.73;;;16.20;83.00;;;;;;4954199;28;20211;-73
2021/11/01 01:06:31;;;;;;;5.10;2.40;;;16.20;83.00;;;;;;4954539;29;20474;-73
2021/11/01 01:08:57;;;;;;;5.73;2.00;;;16.30;83.00;;;;;;4955848;28;20789;-75
2021/11/01 01:11:24;;;;;;;3.10;1.40;;;16.50;82.80;;;;;;4952371;29;20425;-72
2021/11/01 01:13:52;;;;;;;1.80;1.30;;;16.60;83.30;;;;;;4949984;28;20215;-73
2021/11/01 01:18:44;;;;;;;1.70;1.40;;;16.70;82.80;;;;;;4948999;28;20436;-74
2021/11/01 01:23:55;;;;;;;2.10;1.60;;;16.70;83.10;;;;;;4957534;28;20521;-73
2021/11/01 01:26:21;;;;;;;1.97;1.27;;;16.80;83.00;;;;;;4953568;29;20437;-72
2021/11/01 01:28:47;;;;;;;2.23;1.53;;;16.80;83.00;;;;;;4954481;28;20434;-75
2021/11/01 01:31:12;;;;;;;1.40;1.20;;;16.80;83.10;;;;;;4953796;28;20415;-74
2021/11/01 01:33:39;;;;;;;4.77;1.80;;;16.80;83.10;;;;;;4951849;28;20190;-73
2021/11/01 01:36:06;;;;;;;1.50;1.40;;;16.90;83.30;;;;;;4952158;28;20188;-74
2021/11/01 01:38:33;;;;;;;1.53;1.20;;;16.90;83.30;;;;;;4952790;29;21021;-72
2021/11/01 01:41:09;;;;;;;2.03;1.23;;;16.80;83.70;;;;;;4952537;29;20476;-73
2021/11/01 01:43:35;;;;;;;1.40;1.40;;;16.80;83.80;;;;;;4945670;28;20423;-72
2021/11/01 01:46:00;;;;;;;2.50;1.40;;;16.70;84.30;;;;;;4949999;29;20431;-73
2021/11/01 01:48:26;;;;;;;2.50;1.57;;;16.80;84.60;;;;;;4956338;28;20244;-75
2021/11/01 01:50:52;;;;;;;2.17;1.63;;;16.80;84.40;;;;;;4957085;29;20430;-72
2021/11/01 01:53:23;;;;;;;3.10;1.60;;;16.70;84.70;;;;;;4962436;29;20190;-73
2021/11/01 01:55:50;;;;;;;3.40;2.23;;;16.80;84.90;;;;;;4954726;29;20452;-75
2021/11/01 01:58:16;;;;;;;4.50;2.80;;;16.70;85.00;;;;;;4956896;28;20464;-72
2021/11/01 02:03:16;;;;;;;6.93;2.57;;;16.20;84.00;;;;;;4954520;28;20233;-73
2021/11/01 02:06:05;;;;;;;5.10;2.20;;;15.80;85.50;;;;;;4952547;29;20908;-72
2021/11/01 02:08:38;;;;;;;2.53;2.00;;;15.50;86.30;;;;;;4960176;28;20268;-72
2021/11/01 02:11:11;;;;;;;5.03;1.93;;;15.30;86.50;;;;;;4948947;29;20498;-73
2021/11/01 02:13:44;;;;;;;2.87;1.30;;;15.10;84.90;;;;;;4946294;28;20419;-74
2021/11/01 02:16:14;;;;;;;2.33;1.30;;;15.10;83.70;;;;;;4948528;29;20428;-71
2021/11/01 02:18:47;;;;;;;3.27;1.23;;;14.80;80.60;;;;;;4944685;29;20898;-73
2021/11/01 02:21:49;;;;;;;5.13;1.80;;;14.50;80.30;;;;;;4954316;29;20506;-74
2021/11/01 02:24:39;;;;;;;3.83;1.20;;;14.30;81.40;;;;;;4948898;28;20457;-73
2021/11/01 02:27:09;;;;;;;3.40;1.00;;;14.10;80.60;;;;;;4952464;28;20477;-73
2021/11/01 02:29:36;;;;;;;3.90;1.10;;;13.90;80.60;;;;;;4955294;29;20894;-74
2021/11/01 02:32:03;;;;;;;4.40;1.20;;;13.80;81.10;;;;;;4956888;28;20447;-73
2021/11/01 02:34:29;;;;;;;6.73;1.30;;;13.80;81.90;;;;;;4946541;28;20522;-74
2021/11/01 02:36:55;;;;;;;2.37;1.17;;;13.70;82.80;;;;;;4953529;28;20477;-74
2021/11/01 02:39:21;;;;;;;3.27;1.17;;;13.60;84.00;;;;;;4953463;28;20519;-73
2021/11/01 02:41:47;;;;;;;4.87;1.53;;;13.50;84.70;;;;;;4958870;29;20207;-73
2021/11/01 02:44:13;;;;;;;5.13;1.50;;;13.30;85.60;;;;;;4944459;29;20475;-73
2021/11/01 02:46:43;;;;;;;2.00;1.10;;;13.20;85.60;;;;;;4938203;29;20188;-72
2021/11/01 02:49:09;;;;;;;6.80;1.87;;;13.00;86.60;;;;;;4951076;29;20195;-73
2021/11/01 02:51:35;;;;;;;3.37;1.03;;;12.90;87.00;;;;;;4954933;28;20439;-73
2021/11/01 02:54:02;;;;;;;7.60;1.50;;;12.90;86.80;;;;;;4953500;29;20380;-73
2021/11/01 02:56:28;;;;;;;3.47;1.03;;;12.90;87.00;;;;;;4956518;28;20483;-72
2021/11/01 02:58:54;;;;;;;3.40;1.17;;;12.90;87.30;;;;;;4953843;29;20459;-73
2021/11/01 03:01:21;;;;;;;4.30;1.30;;;12.90;87.00;;;;;;4955475;28;20454;-74
2021/11/01 03:03:47;;;;;;;3.10;1.17;;;13.00;87.10;;;;;;4951750;28;20436;-75
2021/11/01 03:06:18;;;;;;;8.53;1.30;;;12.90;87.10;;;;;;4953092;29;20423;-75
2021/11/01 03:08:45;;;;;;;4.17;1.20;;;12.90;87.60;;;;;;4955656;28;20191;-75
2021/11/01 03:11:12;;;;;;;4.50;1.10;;;12.80;88.30;;;;;;4953239;28;20423;-72
2021/11/01 03:13:38;;;;;;;1.63;1.00;;;12.80;88.60;;;;;;4954922;28;20451;-73
2021/11/01 03:16:05;;;;;;;3.73;1.10;;;12.70;88.10;;;;;;4955903;28;21249;-73
2021/11/01 03:18:57;;;;;;;2.00;1.13;;;12.70;88.60;;;;;;4955565;28;20966;-73
2021/11/01 03:21:24;;;;;;;2.23;1.00;;;12.70;88.90;;;;;;4955286;29;21107;-73
2021/11/01 03:23:52;;;;;;;2.67;1.10;;;12.60;89.30;;;;;;4954033;28;20438;-74
2021/11/01 03:26:21;;;;;;;1.20;0.90;;;12.50;90.10;;;;;;4956429;29;20423;-73
2021/11/01 03:28:52;;;;;;;2.40;1.20;;;12.50;89.60;;;;;;4955873;29;20420;-73
2021/11/01 03:31:23;;;;;;;7.83;1.50;;;12.30;90.60;;;;;;4948561;28;20529;-73
2021/11/01 03:33:51;;;;;;;5.03;1.60;;;12.20;91.10;;;;;;4953671;28;20493;-74
2021/11/01 03:36:18;;;;;;;3.67;1.03;;;12.10;91.60;;;;;;4951735;29;20432;-76
2021/11/01 03:38:44;;;;;;;1.70;0.87;;;12.00;92.40;;;;;;4946953;29;20432;-74
2021/11/01 03:41:11;;;;;;;6.00;1.00;;;11.90;92.50;;;;;;4948172;29;20518;-74
2021/11/01 03:43:45;;;;;;;3.83;1.10;;;11.90;92.80;;;;;;4953062;28;20561;-75
2021/11/01 03:46:11;;;;;;;5.73;1.43;;;11.80;92.60;;;;;;4951835;29;20586;-75
2021/11/01 03:48:42;;;;;;;1.50;0.90;;;11.70;93.10;;;;;;4955361;29;20479;-75
2021/11/01 03:51:37;;;;;;;3.67;1.13;;;11.60;93.30;;;;;;4954775;28;20941;-76
2021/11/01 03:53:59;;;;;;;3.00;1.03;;;11.70;93.60;;;;;;4952841;28;20588;-74
2021/11/01 03:56:26;;;;;;;6.90;1.13;;;11.70;93.90;;;;;;4955584;29;21017;-73
2021/11/01 03:58:52;;;;;;;3.47;1.20;;;11.70;94.00;;;;;;4956106;29;20176;-74
2021/11/01 04:01:18;;;;;;;2.47;1.33;;;11.70;93.70;;;;;;4951673;29;20432;-73
2021/11/01 04:03:44;;;;;;;3.20;1.43;;;11.60;93.70;;;;;;4953163;28;20427;-74
2021/11/01 04:06:10;;;;;;;1.33;1.00;;;11.40;94.00;;;;;;4953627;28;20208;-73
2021/11/01 04:08:36;;;;;;;3.93;1.20;;;11.40;94.30;;;;;;4955733;28;20215;-75
2021/11/01 04:11:01;;;;;;;5.27;1.10;;;11.30;94.50;;;;;;4947118;29;20196;-76
2021/11/01 04:13:27;;;;;;;1.83;1.13;;;11.20;94.80;;;;;;4955612;29;20462;-75
2021/11/01 04:16:09;;;;;;;4.50;1.27;;;11.30;95.00;;;;;;4951715;28;20239;-74
2021/11/01 04:18:48;;;;;;;4.27;1.67;;;11.30;95.30;;;;;;4951719;29;20479;-74
2021/11/01 04:21:14;;;;;;;2.80;1.30;;;11.30;95.50;;;;;;4952135;29;20435;-76
2021/11/01 04:23:40;;;;;;;1.63;1.27;;;11.40;95.60;;;;;;4951700;29;20528;-74
2021/11/01 04:26:06;;;;;;;3.73;1.30;;;11.40;95.60;;;;;;4955839;28;20797;-74
2021/11/01 04:28:32;;;;;;;2.67;1.40;;;11.50;95.60;;;;;;4953255;28;20184;-75
2021/11/01 04:31:08;;;;;;;2.47;1.60;;;11.50;95.70;;;;;;4957783;29;20305;-73
2021/11/01 04:33:35;;;;;;;4.00;1.30;;;11.50;96.00;;;;;;4947784;28;20527;-74
2021/11/01 04:36:00;;;;;;;2.10;1.27;;;11.50;96.30;;;;;;4955670;29;20510;-73
2021/11/01 04:54:02;;;;;;;3.57;1.40;;;11.60;96.30;;;;;;4950072;29;20496;-76
2021/11/01 04:56:28;;;;;;;1.93;1.40;;;11.60;96.20;;;;;;4947680;29;20419;-74
2021/11/01 04:58:56;;;;;;;5.60;1.20;;;11.60;96.30;;;;;;4950658;29;20434;-76
2021/11/01 05:01:29;;;;;;;2.30;1.30;;;11.60;96.60;;;;;;4953953;29;20609;-76
2021/11/01 05:03:58;;;;;;;4.10;2.03;;;11.60;96.70;;;;;;4950668;28;20456;-74
2021/11/01 05:06:25;;;;;;;4.33;1.50;;;11.60;96.80;;;;;;4959491;28;20424;-76
2021/11/01 05:09:27;;;;;;;4.03;1.80;;;11.60;96.70;;;;;;4951783;29;20432;-75
2021/11/01 05:14:54;;;;;;;1.50;1.20;;;11.60;96.30;;;;;;4997013;28;20442;-74
2021/11/01 05:20:11;;;;;;;4.70;1.27;;;11.50;95.60;;;;;;4995508;28;20549;-74
2021/11/01 05:25:32;;;;;;;3.23;1.40;;;11.50;96.20;;;;;;5003576;28;20440;-74
2021/11/01 05:28:45;;;;;;;2.27;1.30;;;11.50;96.40;;;;;;5003246;28;20437;-75
2021/11/01 05:31:02;;;;;;;1.17;0.90;;;11.50;96.50;;;;;;4995502;28;20417;-76
2021/11/01 05:33:44;;;;;;;4.00;1.23;;;11.40;96.60;;;;;;4997026;28;20995;-74
2021/11/01 05:36:10;;;;;;;1.90;1.20;;;11.50;96.40;;;;;;4996048;28;20436;-75
2021/11/01 05:38:36;;;;;;;1.40;1.00;;;11.40;96.30;;;;;;4992764;28;20469;-76
2021/11/01 05:41:03;;;;;;;6.03;1.27;;;11.40;96.40;;;;;;4999625;28;20194;-75
2021/11/01 05:43:29;;;;;;;2.77;1.30;;;11.40;96.60;;;;;;4997809;28;20179;-75
2021/11/01 05:45:54;;;;;;;1.67;1.27;;;11.40;96.90;;;;;;4994215;28;20453;-75
2021/11/01 05:48:20;;;;;;;4.53;1.53;;;11.40;97.00;;;;;;4998737;28;20432;-75
2021/11/01 05:50:46;;;;;;;4.13;1.10;;;11.40;97.30;;;;;;4989265;28;20283;-74
2021/11/01 05:53:13;;;;;;;1.40;0.90;;;11.50;97.50;;;;;;4955213;28;20183;-74
2021/11/01 06:13:51;;;;;;;2.10;1.20;;;11.50;97.30;;;;;;4959938;28;20905;-75
2021/11/01 06:16:17;;;;;;;3.17;1.30;;;11.50;97.50;;;;;;4958085;29;20491;-74
2021/11/01 06:18:43;;;;;;;10.03;1.40;;;11.40;97.70;;;;;;4964492;29;20499;-73
2021/11/01 06:21:14;;;;;;;2.93;1.13;;;11.40;97.50;;;;;;4964947;29;20569;-75
2021/11/01 06:23:45;;;;;;;1.90;1.27;;;11.40;97.30;;;;;;4965406;28;20649;-75
2021/11/01 06:26:12;;;;;;;2.70;1.07;;;11.30;97.20;;;;;;4964575;28;20423;-76
2021/11/01 06:28:42;;;;;;;1.40;1.10;;;11.20;96.40;;;;;;4963417;29;20439;-72
2021/11/01 06:31:13;;;;;;;2.70;1.43;;;11.10;96.70;;;;;;4962215;29;20439;-74
2021/11/01 06:44:56;;;;;;;1.83;1.03;;;10.90;97.30;;;;;;4961569;28;20514;-74
2021/11/01 06:50:26;;;;;;;1.97;1.00;;;10.60;96.20;;;;;;4965599;28;21190;-74
2021/11/01 07:17:56;;;;;;;1.50;0.70;;;10.00;95.50;;;;;;4953905;28;20990;-72
2021/11/01 07:20:25;;;;;;;1.20;0.70;;;10.00;95.20;;;;;;4949753;28;20427;-73
2021/11/01 08:38:40;;;;;;;5.63;2.40;;;10.20;95.10;;;;;;4950063;28;20460;-75
2021/11/01 09:02:25;;;;;;;1.07;0.87;;;10.00;94.90;;;;;;4956929;29;20554;-75
2021/11/01 09:11:27;;;;;;;3.40;0.80;;;10.10;95.20;;;;;;4955335;29;20470;-74
2021/11/01 09:26:41;;;;;;;1.50;0.80;;;10.30;95.50;;;;;;4953643;29;20434;-74
2021/11/01 09:42:17;;;;;;;3.60;1.60;;;10.40;94.80;;;;;;4951686;29;20451;-75
2021/11/01 09:44:47;;;;;;;2.30;1.03;;;10.40;94.70;;;;;;4952436;29;20462;-74
2021/11/01 09:47:14;;;;;;;2.67;1.10;;;10.50;94.90;;;;;;4953208;29;20850;-76
2021/11/01 09:49:41;;;;;;;2.90;1.47;;;10.50;94.80;;;;;;4948521;28;20820;-76
2021/11/01 09:52:09;;;;;;;2.50;1.30;;;10.50;94.70;;;;;;4953807;28;20427;-75
2021/11/01 09:54:37;;;;;;;5.77;1.03;;;10.50;94.50;;;;;;4953478;28;20446;-75
2021/11/01 09:57:36;;;;;;;2.17;1.00;;;10.50;94.60;;;;;;4943682;29;20551;-75
2021/11/01 09:59:53;;;;;;;2.87;0.90;;;10.50;94.30;;;;;;4952302;29;20443;-76
2021/11/01 10:02:21;;;;;;;2.00;1.23;;;10.50;94.30;;;;;;4954354;29;20415;-75
2021/11/01 10:04:50;;;;;;;4.83;1.20;;;10.50;94.00;;;;;;4953187;28;20202;-75
2021/11/01 10:07:35;;;;;;;1.67;1.00;;;10.60;94.00;;;;;;4954517;28;20485;-76
2021/11/01 10:10:14;;;;;;;2.27;1.13;;;10.60;93.60;;;;;;4954042;29;20431;-75
2021/11/01 10:12:44;;;;;;;5.20;1.17;;;10.60;93.60;;;;;;4952656;28;21009;-75
2021/11/01 10:17:59;;;;;;;3.10;1.40;;;10.60;93.40;;;;;;4953860;29;20486;-74
2021/11/01 10:20:26;;;;;;;3.20;1.23;;;10.60;92.70;;;;;;4953198;29;20941;-75
2021/11/01 10:22:52;;;;;;;1.97;1.10;;;10.60;92.80;;;;;;4953834;29;20424;-75
2021/11/01 10:25:20;;;;;;;1.10;0.90;;;10.70;93.20;;;;;;4953422;28;20751;-75
2021/11/01 10:27:59;;;;;;;1.43;0.90;;;10.70;93.10;;;;;;4954056;29;20481;-77
2021/11/01 10:30:29;;;;;;;6.20;1.30;;;10.70;93.00;;;;;;4953528;28;20423;-76
2021/11/01 10:32:58;;;;;;;1.03;0.87;;;10.70;92.70;;;;;;4949133;29;20436;-74
2021/11/01 10:35:27;;;;;;;1.50;1.20;;;10.70;92.70;;;;;;4951366;28;21187;-74
2021/11/01 11:14:44;;;;;;;3.27;1.30;;;11.20;90.80;;;;;;4934742;29;21240;-75
2021/11/01 11:17:18;;;;;;;5.53;1.20;;;11.20;90.90;;;;;;4934650;29;20570;-74
2021/11/01 11:47:54;;;;;;;3.47;1.80;;;11.70;89.60;;;;;;4952628;29;20422;-76
2021/11/01 11:50:22;;;;;;;3.87;2.00;;;11.80;89.30;;;;;;4956535;28;20440;-76
2021/11/01 11:52:49;;;;;;;4.33;2.13;;;11.80;89.50;;;;;;4954467;28;20767;-74
2021/11/01 11:55:28;;;;;;;2.20;1.70;;;11.80;89.50;;;;;;4947640;29;20443;-75
2021/11/01 11:58:03;;;;;;;2.67;1.90;;;11.80;89.50;;;;;;4955275;29;20474;-76
2021/11/01 12:00:33;;;;;;;5.20;2.17;;;11.80;89.70;;;;;;4954912;29;20518;-76
2021/11/01 12:03:18;;;;;;;2.37;1.40;;;11.80;89.90;;;;;;4955475;29;20427;-75
2021/11/01 12:06:03;;;;;;;3.60;1.57;;;11.80;89.20;;;;;;4946655;29;20793;-75
2021/11/01 12:19:15;;;;;;;4.17;1.63;;;11.70;89.50;;;;;;4956554;29;20518;-75
2021/11/01 12:21:44;;;;;;;2.43;1.17;;;11.80;90.00;;;;;;4944120;29;20444;-74
2021/11/01 12:24:12;;;;;;;2.83;1.57;;;11.80;89.20;;;;;;4954733;28;20456;-74
2021/11/01 12:26:43;;;;;;;1.70;1.40;;;11.80;89.60;;;;;;4955960;28;20412;-74
2021/11/01 12:29:13;;;;;;;3.37;1.57;;;11.70;89.30;;;;;;4948221;29;20470;-76
2021/11/01 12:31:41;;;;;;;2.23;1.60;;;11.70;89.50;;;;;;4955666;29;20420;-75
2021/11/01 12:34:22;;;;;;;2.60;1.90;;;11.70;89.60;;;;;;4941999;29;20506;-76
2021/11/01 12:36:57;;;;;;;1.67;1.47;;;11.70;90.00;;;;;;4957763;29;20921;-75
2021/11/01 12:39:38;;;;;;;2.03;1.30;;;11.70;90.20;;;;;;4959867;29;20427;-75
2021/11/01 12:58:50;;;;;;;3.40;1.70;;;11.90;90.20;;;;;;4972130;28;21014;-74
2021/11/01 13:01:17;;;;;;;2.43;1.70;;;12.00;90.40;;;;;;4950623;28;20427;-75
2021/11/01 13:04:44;;;;;;;4.63;2.20;;;12.00;90.40;;;;;;4950268;28;20514;-75
2021/11/01 13:10:09;;;;;;;3.40;1.90;;;12.10;89.90;;;;;;4973495;28;20446;-76
2021/11/01 13:12:59;;;;;;;2.50;1.40;;;12.00;89.50;;;;;;4972513;28;20431;-74
2021/11/01 13:20:31;;;;;;;5.27;2.27;;;12.10;88.60;;;;;;4974479;28;21323;-79
2021/11/01 13:23:01;;;;;;;3.47;2.00;;;12.20;88.60;;;;;;4959661;28;20458;-76
2021/11/01 13:36:40;;;;;;;4.27;2.23;;;12.20;88.00;;;;;;4957144;28;20419;-77
2021/11/01 13:39:08;;;;;;;3.90;2.33;;;12.20;88.00;;;;;;4972467;28;20474;-75
2021/11/01 13:41:34;;;;;;;3.67;2.30;;;12.30;87.70;;;;;;4972978;28;20442;-76
2021/11/01 13:44:15;;;;;;;3.37;2.00;;;12.30;87.40;;;;;;4971420;28;20456;-76
2021/11/01 13:46:50;;;;;;;3.20;2.37;;;12.20;87.00;;;;;;4955633;28;20423;-76
2021/11/01 13:49:17;;;;;;;2.87;1.97;;;12.20;86.90;;;;;;4946424;29;20997;-75
2021/11/01 13:51:44;;;;;;;2.73;2.03;;;12.10;86.90;;;;;;4956795;29;20419;-76
2021/11/01 13:54:26;;;;;;;4.00;2.33;;;12.00;87.40;;;;;;4955612;29;20458;-74
2021/11/01 13:56:58;;;;;;;4.00;3.00;;;12.10;87.60;;;;;;4955702;29;20419;-76
2021/11/01 14:26:49;;;;;;;2.30;1.67;;;12.10;86.90;;;;;;4955868;29;20431;-78
2021/11/01 14:29:38;;;;;;;2.30;1.57;;;12.20;86.20;;;;;;4959373;29;20471;-75
2021/11/01 15:04:58;;;;;;;4.90;1.83;;;11.90;86.20;;;;;;4956677;29;20190;-75
2021/11/01 15:19:12;;;;;;;5.67;2.40;;;12.00;85.70;;;;;;4959411;28;20542;-77
2021/11/01 15:24:56;;;;;;;3.60;1.80;;;12.20;85.50;;;;;;4959242;28;20478;-76
2021/11/01 16:18:17;;;;;;;4.80;3.10;;;11.90;88.90;;;;;;4958726;29;20558;-75
2021/11/01 16:20:46;;;;;;;5.53;3.00;;;12.00;89.20;;;;;;4950641;28;20463;-77
2021/11/01 16:23:54;;;;;;;6.77;3.50;;;11.90;89.20;;;;;;4955328;29;20435;-77
2021/11/01 16:26:12;;;;;;;6.13;3.23;;;11.90;89.50;;;;;;4952203;28;20495;-77
2021/11/01 16:28:38;;;;;;;4.90;3.30;;;11.90;88.90;;;;;;4944336;29;20435;-75
2021/11/01 16:33:51;;;;;;;4.33;2.70;;;11.80;88.70;;;;;;4949747;28;20184;-75
2021/11/01 16:36:42;;;;;;;5.13;2.73;;;11.80;88.40;;;;;;4956214;29;20431;-73
2021/11/01 16:39:10;;;;;;;5.90;2.60;;;11.80;88.60;;;;;;4956014;29;21864;-79
2021/11/01 16:41:37;;;;;;;8.97;3.60;;;11.70;87.70;;;;;;4956769;29;20424;-73
2021/11/01 16:44:15;;;;;;;6.40;3.37;;;11.70;88.90;;;;;;4952310;29;20501;-77
2021/11/01 16:46:43;;;;;;;6.77;3.33;;;11.60;89.50;;;;;;4950091;29;20434;-78
2021/11/01 16:49:10;;;;;;;8.10;3.87;;;11.60;89.20;;;;;;4950129;29;20439;-79
2021/11/01 16:51:38;;;;;;;5.87;3.50;;;11.70;89.60;;;;;;4953086;29;20432;-74
2021/11/01 16:54:06;;;;;;;6.13;4.30;;;11.60;90.20;;;;;;4953057;28;20455;-75
2021/11/01 16:57:12;;;;;;;7.13;4.13;;;11.70;90.50;;;;;;4954929;29;20495;-76
2021/11/01 17:02:29;;;;;;;7.33;3.97;;;11.50;90.90;;;;;;4956146;28;20435;-77
2021/11/01 17:26:25;;;;;;;7.53;4.10;;;11.40;91.50;;;;;;4957277;29;20549;-76
2021/11/01 18:51:34;;;;;;;3.53;1.97;;;10.90;85.00;;;;;;4951414;28;20474;-76
2021/11/01 18:54:21;;;;;;;3.13;1.40;;;10.90;84.00;;;;;;4952157;28;20423;-74
2021/11/01 18:56:48;;;;;;;7.10;2.43;;;10.90;83.60;;;;;;4948762;29;20499;-75
2021/11/01 18:59:16;;;;;;;3.70;2.30;;;10.90;85.20;;;;;;4954513;28;21054;-75
2021/11/01 19:01:43;;;;;;;3.33;2.50;;;10.80;85.00;;;;;;4957507;28;20435;-74
2021/11/01 19:04:20;;;;;;;4.60;1.70;;;10.70;86.00;;;;;;4951443;28;20499;-75
2021/11/01 19:06:52;;;;;;;2.47;1.70;;;10.60;85.70;;;;;;4950112;29;20435;-74
2021/11/01 21:27:12;;;;;;;5.83;2.97;;;8.80;93.80;;;;;;4953023;28;20427;-75
2021/11/01 21:29:38;;;;;;;5.93;2.67;;;8.80;93.90;;;;;;4947546;29;20431;-75
2021/11/01 21:32:05;;;;;;;3.90;2.70;;;8.70;94.10;;;;;;4951247;28;20180;-74
2021/11/01 21:34:34;;;;;;;3.60;2.80;;;8.70;94.20;;;;;;4954496;28;20216;-73
2021/11/01 21:37:01;;;;;;;3.60;2.10;;;8.70;94.20;;;;;;4954019;29;20511;-72
2021/11/01 21:39:27;;;;;;;3.50;2.40;;;8.70;94.20;;;;;;4951247;28;20528;-74
2021/11/01 21:41:53;;;;;;;4.80;2.50;;;8.70;94.20;;;;;;4951096;28;20427;-73
2021/11/01 21:44:19;;;;;;;3.33;2.10;;;8.70;94.20;;;;;;4945432;28;20529;-72
2021/11/01 21:46:45;;;;;;;6.37;2.83;;;8.70;94.20;;;;;;4952977;28;20427;-74
2021/11/01 21:49:12;;;;;;;6.33;2.77;;;8.70;94.20;;;;;;4950843;29;20866;-72
2021/11/01 21:51:39;;;;;;;8.03;2.70;;;8.70;94.00;;;;;;4952574;28;20514;-72
2021/11/01 21:57:19;;;;;;;4.00;2.07;;;8.70;94.00;;;;;;4957476;28;21033;-75
2021/11/01 22:20:52;;;;;;;4.33;2.23;;;8.50;94.40;;;;;;4972107;28;20431;-73
2021/11/01 22:26:51;;;;;;;6.90;3.00;;;8.50;94.50;;;;;;4958370;28;20466;-74
2021/11/01 22:39:53;;;;;;;7.90;2.63;;;8.30;94.70;;;;;;4949636;29;20278;-73
2021/11/01 22:58:40;;;;;;;3.20;2.37;;;8.30;95.00;;;;;;4947933;29;20458;-72
2021/11/01 23:33:52;;;;;;;3.87;2.83;;;8.20;94.60;;;;;;4951391;28;20475;-73
2021/11/01 23:36:17;;;;;;;6.40;2.60;;;8.40;94.60;;;;;;4950274;28;20435;-72
2021/11/01 23:38:43;;;;;;;4.30;2.63;;;8.40;94.30;;;;;;4956419;29;20214;-72
2021/11/01 23:41:09;;;;;;;3.67;2.80;;;8.50;94.10;;;;;;4952431;29;20279;-73
2021/11/01 23:43:35;;;;;;;5.10;3.00;;;8.50;93.70;;;;;;4949735;29;20443;-73
2021/11/01 23:46:02;;;;;;;4.73;3.07;;;8.40;94.10;;;;;;4950938;28;20215;-73
2021/11/01 23:48:27;;;;;;;6.30;2.90;;;8.30;94.40;;;;;;4953392;28;20432;-73
2021/11/01 23:50:55;;;;;;;4.20;2.63;;;8.30;94.60;;;;;;4953150;28;20490;-74
2021/11/01 23:55:58;;;;;;;5.93;2.37;;;8.30;94.60;;;;;;4943550;29;20459;-72
2021/11/01 23:58:24;;;;;;;5.77;2.90;;;8.40;94.60;;;;;;4949600;29;20475;-73
